createdAt,value
2018-11-11T00:01:36.914Z,9.20
2018-11-11T00:04:04.549Z,9.30
2018-11-11T00:06:31.887Z,9.40
2018-11-11T00:08:59.591Z,9.50
2018-11-11T00:11:26.991Z,9.50
2018-11-11T00:13:54.306Z,9.40
2018-11-11T00:16:21.642Z,9.30
2018-11-11T00:18:49.044Z,9.40
2018-11-11T00:21:16.387Z,9.40
2018-11-11T00:23:44.101Z,9.20
2018-11-11T00:26:11.427Z,9.40
2018-11-11T00:28:38.771Z,9.50
2018-11-11T00:31:06.103Z,9.60
2018-11-11T00:33:33.484Z,9.60
2018-11-11T00:36:00.822Z,9.70
2018-11-11T00:38:28.138Z,9.70
2018-11-11T00:40:55.475Z,9.40
2018-11-11T00:43:22.808Z,9.30
2018-11-11T00:45:50.142Z,9.30
2018-11-11T00:48:18.015Z,9.40
2018-11-11T00:50:45.334Z,9.50
2018-11-11T00:53:12.693Z,9.50
2018-11-11T00:55:40.566Z,9.40
2018-11-11T00:58:08.147Z,9.50
2018-11-11T01:00:35.499Z,9.50
2018-11-11T01:03:02.907Z,9.40
2018-11-11T01:05:30.222Z,9.40
2018-11-11T01:07:57.533Z,9.30
2018-11-11T01:10:24.918Z,9.40
2018-11-11T01:12:52.314Z,9.50
2018-11-11T01:15:19.626Z,9.50
2018-11-11T01:17:46.961Z,9.50
2018-11-11T01:20:15.573Z,9.50
2018-11-11T01:22:43.226Z,9.40
2018-11-11T01:25:12.418Z,9.50
2018-11-11T01:27:43.062Z,9.70
2018-11-11T01:30:10.402Z,9.50
2018-11-11T01:32:38.214Z,9.20
2018-11-11T01:35:06.364Z,9.10
2018-11-11T01:37:33.677Z,9.20
2018-11-11T01:40:01.014Z,9.40
2018-11-11T01:42:28.371Z,9.30
2018-11-11T01:44:56.353Z,9.30
2018-11-11T01:47:24.166Z,9.40
2018-11-11T01:49:51.472Z,9.30
2018-11-11T01:52:18.802Z,9.30
2018-11-11T01:54:46.134Z,9.40
2018-11-11T01:57:13.479Z,9.60
2018-11-11T01:59:40.820Z,9.40
2018-11-11T02:02:08.147Z,9.50
2018-11-11T02:04:35.504Z,9.40
2018-11-11T02:07:02.841Z,9.30
2018-11-11T02:09:30.184Z,9.30
2018-11-11T02:11:57.490Z,9.30
2018-11-11T02:14:24.955Z,9.40
2018-11-11T02:16:52.293Z,9.40
2018-11-11T02:19:19.638Z,9.40
2018-11-11T02:21:47.040Z,9.40
2018-11-11T02:24:14.293Z,9.40
2018-11-11T02:26:41.642Z,9.40
2018-11-11T02:29:08.966Z,9.30
2018-11-11T02:31:36.332Z,9.30
2018-11-11T02:34:03.741Z,9.40
2018-11-11T02:36:31.115Z,9.40
2018-11-11T02:38:58.474Z,9.30
2018-11-11T02:41:25.802Z,9.00
2018-11-11T02:43:56.403Z,9.00
2018-11-11T02:46:23.719Z,9.10
2018-11-11T02:48:51.075Z,9.10
2018-11-11T02:51:18.426Z,9.20
2018-11-11T02:53:45.796Z,9.20
2018-11-11T02:56:13.140Z,9.30
2018-11-11T02:58:40.508Z,9.30
2018-11-11T03:01:07.847Z,9.20
2018-11-11T03:03:35.211Z,9.20
2018-11-11T03:06:02.554Z,9.20
2018-11-11T03:08:29.910Z,9.30
2018-11-11T03:10:57.249Z,9.40
2018-11-11T03:13:24.607Z,9.50
2018-11-11T03:15:51.941Z,9.50
2018-11-11T03:18:19.292Z,9.30
2018-11-11T03:20:46.624Z,9.40
2018-11-11T03:23:13.958Z,9.40
2018-11-11T03:25:41.395Z,9.40
2018-11-11T03:28:08.726Z,9.50
2018-11-11T03:30:39.535Z,9.40
2018-11-11T03:33:06.846Z,9.40
2018-11-11T03:35:34.170Z,9.40
2018-11-11T03:38:01.766Z,9.40
2018-11-11T03:40:29.109Z,9.30
2018-11-11T03:42:56.435Z,9.20
2018-11-11T03:45:27.251Z,9.00
2018-11-11T03:47:54.587Z,9.10
2018-11-11T03:50:21.924Z,9.00
2018-11-11T03:52:49.260Z,9.00
2018-11-11T03:55:16.646Z,9.00
2018-11-11T03:57:43.973Z,9.10
2018-11-11T04:00:16.016Z,8.90
2018-11-11T04:02:43.364Z,9.10
2018-11-11T04:05:12.030Z,9.20
2018-11-11T04:07:39.678Z,9.30
2018-11-11T04:10:07.947Z,9.30
2018-11-11T04:12:35.250Z,9.10
2018-11-11T04:15:02.580Z,9.00
2018-11-11T04:17:29.903Z,8.90
2018-11-11T04:19:57.296Z,9.10
2018-11-11T04:22:24.605Z,9.20
2018-11-11T04:24:52.802Z,9.30
2018-11-11T04:27:20.404Z,9.30
2018-11-11T04:29:47.774Z,9.30
2018-11-11T04:32:15.095Z,9.20
2018-11-11T04:34:43.062Z,9.30
2018-11-11T04:37:10.816Z,9.40
2018-11-11T04:39:39.211Z,9.40
2018-11-11T04:42:06.533Z,9.20
2018-11-11T04:44:33.859Z,9.30
2018-11-11T04:47:01.202Z,9.30
2018-11-11T04:49:28.761Z,9.40
2018-11-11T04:51:56.089Z,9.40
2018-11-11T04:54:23.417Z,9.40
2018-11-11T04:56:50.769Z,9.40
2018-11-11T04:59:18.116Z,9.30
2018-11-11T05:01:45.585Z,9.30
2018-11-11T05:04:13.035Z,9.30
2018-11-11T05:06:40.386Z,9.30
2018-11-11T05:09:08.285Z,9.20
2018-11-11T05:11:35.598Z,9.20
2018-11-11T05:14:03.015Z,9.10
2018-11-11T05:16:34.050Z,9.30
2018-11-11T05:19:01.469Z,9.20
2018-11-11T05:21:28.914Z,9.20
2018-11-11T05:23:56.344Z,9.10
2018-11-11T05:26:23.873Z,9.20
2018-11-11T05:28:51.246Z,9.10
2018-11-11T05:31:18.606Z,9.20
2018-11-11T05:33:45.930Z,9.10
2018-11-11T05:36:13.258Z,9.10
2018-11-11T05:38:40.606Z,9.20
2018-11-11T05:41:07.971Z,9.30
2018-11-11T05:43:35.298Z,9.30
2018-11-11T05:46:02.737Z,9.40
2018-11-11T05:48:30.057Z,9.40
2018-11-11T05:50:57.402Z,9.40
2018-11-11T05:53:24.730Z,9.30
2018-11-11T05:55:52.055Z,9.40
2018-11-11T05:58:19.394Z,9.20
2018-11-11T06:00:46.756Z,9.10
2018-11-11T06:03:23.203Z,9.10
2018-11-11T06:05:50.521Z,9.30
2018-11-11T06:08:17.857Z,9.20
2018-11-11T06:10:45.230Z,9.30
2018-11-11T06:13:12.550Z,9.20
2018-11-11T06:15:39.872Z,9.30
2018-11-11T06:20:40.435Z,9.20
2018-11-11T06:23:08.082Z,9.10
2018-11-11T06:25:35.455Z,9.20
2018-11-11T06:28:02.850Z,9.20
2018-11-11T06:30:30.188Z,9.30
2018-11-11T06:32:57.507Z,9.40
2018-11-11T06:35:24.817Z,9.50
2018-11-11T06:37:52.198Z,9.40
2018-11-11T06:40:19.544Z,9.40
2018-11-11T06:42:46.938Z,9.30
2018-11-11T06:45:15.135Z,9.50
2018-11-11T06:47:43.091Z,9.40
2018-11-11T06:50:11.266Z,9.50
2018-11-11T06:52:39.434Z,9.50
2018-11-11T06:55:06.823Z,9.30
2018-11-11T06:57:34.355Z,9.30
2018-11-11T07:00:01.985Z,9.40
2018-11-11T07:02:33.645Z,9.30
2018-11-11T07:05:05.224Z,9.40
2018-11-11T07:07:32.746Z,9.40
2018-11-11T07:10:00.331Z,9.50
2018-11-11T07:12:27.761Z,9.50
2018-11-11T07:14:55.152Z,9.40
2018-11-11T07:17:22.498Z,9.40
2018-11-11T07:19:49.815Z,9.40
2018-11-11T07:22:17.502Z,9.40
2018-11-11T07:24:44.814Z,9.40
2018-11-11T07:27:12.214Z,9.50
2018-11-11T07:29:39.878Z,9.30
2018-11-11T07:32:07.325Z,9.40
2018-11-11T07:34:34.629Z,9.40
2018-11-11T07:37:01.987Z,9.30
2018-11-11T07:39:29.309Z,9.40
2018-11-11T07:41:56.966Z,9.30
2018-11-11T07:44:24.276Z,9.40
2018-11-11T07:46:51.627Z,9.40
2018-11-11T07:49:18.985Z,9.10
2018-11-11T07:51:46.499Z,9.10
2018-11-11T07:54:13.762Z,9.20
2018-11-11T07:56:41.208Z,9.20
2018-11-11T07:59:08.561Z,9.40
2018-11-11T08:01:36.093Z,9.50
2018-11-11T08:04:03.683Z,9.30
2018-11-11T08:06:31.035Z,9.20
2018-11-11T08:08:58.384Z,9.30
2018-11-11T08:11:31.543Z,9.40
2018-11-11T08:13:58.879Z,9.50
2018-11-11T08:16:26.221Z,9.40
2018-11-11T08:18:53.845Z,9.30
2018-11-11T08:21:21.191Z,9.50
2018-11-11T08:23:48.535Z,9.50
2018-11-11T08:26:15.878Z,9.30
2018-11-11T08:28:43.207Z,9.40
2018-11-11T08:31:10.564Z,9.60
2018-11-11T08:33:37.969Z,9.60
2018-11-11T08:36:05.294Z,9.60
2018-11-11T08:38:32.638Z,9.50
2018-11-11T08:40:59.947Z,9.50
2018-11-11T08:43:27.282Z,9.60
2018-11-11T08:45:54.879Z,9.70
2018-11-11T08:48:22.233Z,9.60
2018-11-11T08:50:49.646Z,9.60
2018-11-11T08:53:17.266Z,9.80
2018-11-11T08:55:44.626Z,9.80
2018-11-11T08:58:12.089Z,9.80
2018-11-11T09:00:39.353Z,9.80
2018-11-11T09:03:06.831Z,9.90
2018-11-11T09:05:40.066Z,10.00
2018-11-11T09:08:07.771Z,10.10
2018-11-11T09:10:35.128Z,10.10
2018-11-11T09:13:02.580Z,10.20
2018-11-11T09:15:29.970Z,10.20
2018-11-11T09:17:57.400Z,10.00
2018-11-11T09:20:28.514Z,10.00
2018-11-11T09:22:55.867Z,10.30
2018-11-11T09:25:23.271Z,10.30
2018-11-11T09:27:50.618Z,10.50
2018-11-11T09:30:18.018Z,10.50
2018-11-11T09:32:45.394Z,10.40
2018-11-11T09:35:12.764Z,10.40
2018-11-11T09:37:40.605Z,10.50
2018-11-11T09:40:08.395Z,10.40
2018-11-11T09:42:35.857Z,10.30
2018-11-11T09:45:03.467Z,10.40
2018-11-11T09:47:30.790Z,10.40
2018-11-11T09:49:59.514Z,10.30
2018-11-11T09:52:26.969Z,10.10
2018-11-11T09:54:54.362Z,10.10
2018-11-11T09:57:22.107Z,10.30
2018-11-11T09:59:49.482Z,10.60
2018-11-11T10:02:16.945Z,10.70
2018-11-11T10:04:49.434Z,10.70
2018-11-11T10:07:22.315Z,10.80
2018-11-11T10:09:52.964Z,10.70
2018-11-11T10:12:30.148Z,10.50
2018-11-11T10:15:05.874Z,10.50
2018-11-11T10:17:40.726Z,10.40
2018-11-11T10:20:14.738Z,10.50
2018-11-11T10:22:47.726Z,10.40
2018-11-11T10:27:23.412Z,10.50
2018-11-11T10:29:53.966Z,10.70
2018-11-11T10:32:31.623Z,10.60
2018-11-11T10:35:15.155Z,10.70
2018-11-11T10:38:45.750Z,10.80
2018-11-11T10:41:18.360Z,10.80
2018-11-11T10:43:48.962Z,10.70
2018-11-11T10:46:25.151Z,10.60
2018-11-11T10:48:57.284Z,10.70
2018-11-11T10:51:24.707Z,10.70
2018-11-11T10:53:52.032Z,10.70
2018-11-11T10:56:19.382Z,10.80
2018-11-11T10:58:47.113Z,10.70
2018-11-11T11:01:22.902Z,10.80
2018-11-11T11:03:50.651Z,10.70
2018-11-11T11:06:22.711Z,10.80
2018-11-11T11:08:55.601Z,10.80
2018-11-11T11:11:22.939Z,10.80
2018-11-11T11:13:50.373Z,10.90
2018-11-11T11:16:17.686Z,10.90
2018-11-11T11:18:45.005Z,10.90
2018-11-11T11:21:12.356Z,10.90
2018-11-11T11:23:39.800Z,10.70
2018-11-11T11:26:07.979Z,10.80
2018-11-11T11:28:35.431Z,10.80
2018-11-11T11:31:02.858Z,10.60
2018-11-11T11:33:30.397Z,10.60
2018-11-11T11:35:57.808Z,10.60
2018-11-11T11:38:25.231Z,10.80
2018-11-11T11:40:52.494Z,10.90
2018-11-11T11:43:19.859Z,10.90
2018-11-11T11:45:47.191Z,10.80
2018-11-11T11:48:14.571Z,10.80
2018-11-11T11:50:41.959Z,10.90
2018-11-11T11:53:09.323Z,11.00
2018-11-11T11:55:36.731Z,11.00
2018-11-11T11:58:11.641Z,11.00
2018-11-11T12:00:38.954Z,11.10
2018-11-11T12:03:06.380Z,11.10
2018-11-11T12:05:33.750Z,10.90
2018-11-11T12:08:01.078Z,10.90
2018-11-11T12:10:28.682Z,10.80
2018-11-11T12:12:56.090Z,10.80
2018-11-11T12:15:23.553Z,10.70
2018-11-11T12:17:50.919Z,10.60
2018-11-11T12:20:18.247Z,10.70
2018-11-11T12:22:45.616Z,10.90
2018-11-11T12:25:13.046Z,11.00
2018-11-11T12:27:40.468Z,11.00
2018-11-11T12:30:08.577Z,11.10
2018-11-11T12:32:36.044Z,11.10
2018-11-11T12:35:03.451Z,11.00
2018-11-11T12:37:30.717Z,11.00
2018-11-11T12:39:58.486Z,11.10
2018-11-11T12:42:25.792Z,11.10
2018-11-11T12:44:53.237Z,10.90
2018-11-11T12:47:20.542Z,11.00
2018-11-11T12:49:47.863Z,11.10
2018-11-11T12:52:15.208Z,11.20
2018-11-11T12:54:45.942Z,11.20
2018-11-11T12:57:13.307Z,11.30
2018-11-11T12:59:40.660Z,11.40
2018-11-11T13:02:07.982Z,11.30
2018-11-11T13:04:35.409Z,11.50
2018-11-11T13:07:02.741Z,11.40
2018-11-11T13:09:30.083Z,11.40
2018-11-11T13:11:57.512Z,11.40
2018-11-11T13:14:24.791Z,11.40
2018-11-11T13:16:52.150Z,11.50
2018-11-11T13:19:19.487Z,11.60
2018-11-11T13:21:46.877Z,11.50
2018-11-11T13:24:14.307Z,11.50
2018-11-11T13:26:41.672Z,11.60
2018-11-11T13:29:09.010Z,11.70
2018-11-11T13:31:36.440Z,11.80
2018-11-11T13:34:03.771Z,11.80
2018-11-11T13:36:31.102Z,11.80
2018-11-11T13:38:58.785Z,11.70
2018-11-11T13:41:26.119Z,11.70
2018-11-11T13:43:53.459Z,11.60
2018-11-11T13:46:20.878Z,11.50
2018-11-11T13:48:48.209Z,11.50
2018-11-11T13:51:15.537Z,11.50
2018-11-11T13:53:42.901Z,11.40
2018-11-11T13:56:10.273Z,11.40
2018-11-11T13:58:37.606Z,11.50
2018-11-11T14:01:04.942Z,11.40
2018-11-11T14:03:32.369Z,11.30
2018-11-11T14:05:59.685Z,11.40
2018-11-11T14:08:27.172Z,11.30
2018-11-11T14:10:54.453Z,11.30
2018-11-11T14:13:21.727Z,11.30
2018-11-11T14:15:49.111Z,11.30
2018-11-11T14:18:16.556Z,11.30
2018-11-11T14:20:43.859Z,11.20
2018-11-11T14:23:11.211Z,11.20
2018-11-11T14:25:38.643Z,11.30
2018-11-11T14:28:05.951Z,11.30
2018-11-11T14:30:33.265Z,11.20
2018-11-11T14:33:00.642Z,11.20
2018-11-11T14:35:28.018Z,11.20
2018-11-11T14:37:55.357Z,11.20
2018-11-11T14:40:24.170Z,11.20
2018-11-11T14:42:51.522Z,11.10
2018-11-11T14:45:19.437Z,11.10
2018-11-11T14:47:48.106Z,11.10
2018-11-11T14:50:16.185Z,11.10
2018-11-11T14:52:44.075Z,11.10
2018-11-11T14:55:13.826Z,11.10
2018-11-11T14:57:41.450Z,11.10
2018-11-11T15:00:19.659Z,11.10
2018-11-11T15:02:48.534Z,11.10
2018-11-11T15:05:15.959Z,11.10
2018-11-11T15:07:43.436Z,11.00
2018-11-11T15:10:11.982Z,11.00
2018-11-11T15:12:39.338Z,11.00
2018-11-11T15:15:08.928Z,11.00
2018-11-11T15:17:36.268Z,11.00
2018-11-11T15:20:04.197Z,11.00
2018-11-11T15:22:31.361Z,10.90
2018-11-11T15:24:58.681Z,10.90
2018-11-11T15:27:26.083Z,10.90
2018-11-11T15:29:53.782Z,10.90
2018-11-11T15:32:21.157Z,10.80
2018-11-11T15:34:52.617Z,10.80
2018-11-11T15:37:20.039Z,10.80
2018-11-11T15:39:47.395Z,10.80
2018-11-11T15:42:14.810Z,10.80
2018-11-11T15:44:42.115Z,10.40
2018-11-11T15:47:09.448Z,10.20
2018-11-11T15:49:36.801Z,10.50
2018-11-11T15:52:04.508Z,10.80
2018-11-11T15:54:32.216Z,10.90
2018-11-11T15:56:59.533Z,10.90
2018-11-11T15:59:26.879Z,11.00
2018-11-11T16:01:54.246Z,11.10
2018-11-11T16:04:21.617Z,11.20
2018-11-11T16:06:49.026Z,11.20
2018-11-11T16:09:16.347Z,11.30
2018-11-11T16:11:44.028Z,11.20
2018-11-11T16:14:11.354Z,11.30
2018-11-11T16:16:38.718Z,11.30
2018-11-11T16:19:06.174Z,11.40
2018-11-11T16:21:33.525Z,11.50
2018-11-11T16:24:00.920Z,11.70
2018-11-11T16:26:28.277Z,11.70
2018-11-11T16:28:55.721Z,11.70
2018-11-11T16:31:23.111Z,11.80
2018-11-11T16:33:50.535Z,11.80
2018-11-11T16:36:17.970Z,11.70
2018-11-11T16:38:45.303Z,11.70
2018-11-11T16:41:12.826Z,11.70
2018-11-11T16:43:40.103Z,11.70
2018-11-11T16:46:07.586Z,11.70
2018-11-11T16:48:35.054Z,11.60
2018-11-11T16:51:02.428Z,11.60
2018-11-11T16:53:29.785Z,11.70
2018-11-11T16:55:57.222Z,11.70
2018-11-11T16:58:24.557Z,11.70
2018-11-11T17:00:51.931Z,11.70
2018-11-11T17:03:19.293Z,11.70
2018-11-11T17:05:46.666Z,11.70
2018-11-11T17:08:14.314Z,11.70
2018-11-11T17:10:41.657Z,11.70
2018-11-11T17:13:10.764Z,11.70
2018-11-11T17:15:38.197Z,11.70
2018-11-11T17:18:05.680Z,11.70
2018-11-11T17:20:33.175Z,11.70
2018-11-11T17:23:02.312Z,11.70
2018-11-11T17:25:29.695Z,11.70
2018-11-11T17:27:57.606Z,11.70
2018-11-11T17:30:27.162Z,11.60
2018-11-11T17:32:55.108Z,11.70
2018-11-11T17:35:22.562Z,11.70
2018-11-11T17:37:49.903Z,11.70
2018-11-11T17:40:19.056Z,11.70
2018-11-11T17:42:47.422Z,11.70
2018-11-11T17:45:15.109Z,11.70
2018-11-11T17:47:43.110Z,11.70
2018-11-11T17:50:15.434Z,11.70
2018-11-11T17:52:42.886Z,11.70
2018-11-11T17:55:11.628Z,11.70
2018-11-11T17:57:38.998Z,11.80
2018-11-11T18:00:06.694Z,11.80
2018-11-11T18:02:34.253Z,11.80
2018-11-11T18:05:01.583Z,11.80
2018-11-11T18:07:28.968Z,11.80
2018-11-11T18:09:56.432Z,11.80
2018-11-11T18:12:23.825Z,11.80
2018-11-11T18:14:51.479Z,11.80
2018-11-11T18:17:18.867Z,11.90
2018-11-11T18:19:46.251Z,11.90
2018-11-11T18:22:13.702Z,11.90
2018-11-11T18:24:41.053Z,12.00
2018-11-11T18:27:08.460Z,12.00
2018-11-11T18:32:09.531Z,12.00
2018-11-11T18:34:37.010Z,12.00
2018-11-11T18:37:04.401Z,12.00
2018-11-11T18:39:31.778Z,12.00
2018-11-11T18:41:59.231Z,12.10
2018-11-11T18:44:26.747Z,12.10
2018-11-11T18:46:54.174Z,12.00
2018-11-11T18:49:21.531Z,12.10
2018-11-11T18:51:48.905Z,12.00
2018-11-11T18:54:16.286Z,12.00
2018-11-11T18:56:43.605Z,12.00
2018-11-11T18:59:10.996Z,11.90
2018-11-11T19:01:38.326Z,11.90
2018-11-11T19:04:05.702Z,11.90
2018-11-11T19:06:33.179Z,11.90
2018-11-11T19:09:00.647Z,11.90
2018-11-11T19:11:28.116Z,11.90
2018-11-11T19:13:55.434Z,11.90
2018-11-11T19:16:22.802Z,11.90
2018-11-11T19:18:50.200Z,11.90
2018-11-11T19:21:17.523Z,11.90
2018-11-11T19:23:44.917Z,11.90
2018-11-11T19:26:12.226Z,11.90
2018-11-11T19:28:39.575Z,11.90
2018-11-11T19:31:06.902Z,11.90
2018-11-11T19:33:34.342Z,11.90
2018-11-11T19:36:01.659Z,11.90
2018-11-11T19:38:29.042Z,11.90
2018-11-11T19:40:56.399Z,11.90
2018-11-11T19:43:23.716Z,11.90
2018-11-11T19:48:25.094Z,11.90
2018-11-11T19:50:52.430Z,11.90
2018-11-11T19:53:19.744Z,11.90
2018-11-11T19:55:47.073Z,11.90
2018-11-11T19:58:14.441Z,11.90
2018-11-11T20:00:41.900Z,11.80
2018-11-11T20:03:09.319Z,11.80
2018-11-11T20:05:36.662Z,11.80
2018-11-11T20:08:04.000Z,11.80
2018-11-11T20:10:31.700Z,11.80
2018-11-11T20:12:59.846Z,11.80
2018-11-11T20:15:28.479Z,11.80
2018-11-11T20:17:55.803Z,11.80
2018-11-11T20:20:24.687Z,11.80
2018-11-11T20:22:52.127Z,11.80
2018-11-11T20:25:26.210Z,11.80
2018-11-11T20:27:53.626Z,11.80
2018-11-11T20:30:25.173Z,11.80
2018-11-11T20:32:52.646Z,11.80
2018-11-11T20:35:21.720Z,11.80
2018-11-11T20:37:48.983Z,11.80
2018-11-11T20:40:19.753Z,11.80
2018-11-11T20:42:47.602Z,11.80
2018-11-11T20:45:16.018Z,11.80
2018-11-11T20:47:43.966Z,11.80
2018-11-11T20:50:13.478Z,11.80
2018-11-11T20:52:41.725Z,11.90
2018-11-11T20:55:09.487Z,11.90
2018-11-11T20:57:37.381Z,11.90
2018-11-11T21:00:05.613Z,11.90
2018-11-11T21:02:32.938Z,11.90
2018-11-11T21:05:00.374Z,11.90
2018-11-11T21:07:27.771Z,11.90
2018-11-11T21:09:55.037Z,12.00
2018-11-11T21:12:22.425Z,12.00
2018-11-11T21:14:49.762Z,12.00
2018-11-11T21:17:20.512Z,12.00
2018-11-11T21:19:47.836Z,12.00
2018-11-11T21:22:15.917Z,12.00
2018-11-11T21:24:43.511Z,12.10
2018-11-11T21:27:11.018Z,12.10
2018-11-11T21:29:38.483Z,12.10
2018-11-11T21:32:05.854Z,12.10
2018-11-11T21:34:33.274Z,12.00
2018-11-11T21:37:00.638Z,12.00
2018-11-11T21:39:28.021Z,12.00
2018-11-11T21:41:55.359Z,12.00
2018-11-11T21:44:22.709Z,12.00
2018-11-11T21:46:50.044Z,12.00
2018-11-11T21:49:17.558Z,12.00
2018-11-11T21:51:45.171Z,12.00
2018-11-11T21:54:12.545Z,12.10
2018-11-11T21:56:39.872Z,12.10
2018-11-11T21:59:07.239Z,12.10
2018-11-11T22:01:34.576Z,12.10
2018-11-11T22:04:02.027Z,12.10
2018-11-11T22:06:29.651Z,12.10
2018-11-11T22:08:57.018Z,12.10
2018-11-11T22:11:24.420Z,12.10
2018-11-11T22:13:51.858Z,12.10
2018-11-11T22:16:19.212Z,12.10
2018-11-11T22:18:46.590Z,12.10
2018-11-11T22:21:13.955Z,12.10
2018-11-11T22:23:41.285Z,12.10
2018-11-11T22:26:08.654Z,12.10
2018-11-11T22:28:36.052Z,12.10
2018-11-11T22:31:03.370Z,12.20
2018-11-11T22:33:30.695Z,12.10
2018-11-11T22:35:58.052Z,12.10
2018-11-11T22:38:25.381Z,12.10
2018-11-11T22:40:52.697Z,12.10
2018-11-11T22:43:20.061Z,12.20
2018-11-11T22:45:47.418Z,12.20
2018-11-11T22:48:14.787Z,12.20
2018-11-11T22:50:42.223Z,12.20
2018-11-11T22:53:09.564Z,12.20
2018-11-11T22:55:36.919Z,12.20
2018-11-11T22:58:04.270Z,12.30
2018-11-11T23:00:32.294Z,12.30
2018-11-11T23:02:59.962Z,12.20
2018-11-11T23:05:27.353Z,12.30
2018-11-11T23:07:54.734Z,12.20
2018-11-11T23:10:22.322Z,12.30
2018-11-11T23:12:49.645Z,12.20
2018-11-11T23:15:18.179Z,12.30
2018-11-11T23:17:45.551Z,12.20
2018-11-11T23:20:14.195Z,12.20
2018-11-11T23:22:41.774Z,12.20
2018-11-11T23:25:10.347Z,12.20
2018-11-11T23:27:38.031Z,12.20
2018-11-11T23:30:07.645Z,12.20
2018-11-11T23:32:34.988Z,12.20
2018-11-11T23:35:02.320Z,12.20
2018-11-11T23:37:29.682Z,12.20
2018-11-11T23:39:57.019Z,12.20
2018-11-11T23:42:24.343Z,12.20
2018-11-11T23:44:51.690Z,12.20
2018-11-11T23:47:19.031Z,12.20
2018-11-11T23:49:50.213Z,12.20
2018-11-11T23:52:17.543Z,12.20
2018-11-11T23:54:44.889Z,12.20
2018-11-11T23:57:12.241Z,12.20
2018-11-11T23:59:39.560Z,12.20
